KGVT/GVT METAR and TAF weather

Enter ICAO airport designator
Station Type Date Time Source
KGVT METAR 2018/12/11 17:35 UTC NOAA

KGVT 111735Z AUTO 20016G22KT 10SM CLR 15/00 A3031 RMK AO2


Station Type Date Time Source
KGVT Decoded METAR 2018/12/11 17:35 UTC NOAA

Greenville / Majors, TX, United States (KGVT) 33-04N 096-04W
Dec 11, 2018 - 12:35 PM EST / 2018.12.11 1735 UTC
Wind: from the SSW (200 degrees) at 18 MPH (16 KT) gusting to 25 MPH (22 KT):0
Visibility: 10 mile(s):0
Sky conditions: clear
Temperature: 59 F (15 C)
Dew Point: 32 F (0 C)
Relative Humidity: 35%
Pressure (altimeter): 30.31 in. Hg (1026 hPa)
ob: KGVT 111735Z AUTO 20016G22KT 10SM CLR 15/00 A3031 RMK AO2
cycle: 17

Station Type Date Time Source
KGVT TAF UTC NOAA

Error!


Example: see airport list